MSC Sinfonia — H8XH — position and weather

sailwx.info

Track history (hours):
 
Tides and Currents Weather Stations Pressure Air Temp Water Temp Dewpoint Dewpoint Depression Visibility Wind Speed Wind Dir Waves Ship Positions

MSC Sinfonia

Last reported at 2016-Jul-28 09:22 UTC. Time now 2016-Jul-29 10:17 UTC.
Position N 42°29' E 018°06'.

Length 251 m; draft 6.8 m.

Type: Passenger vessel. MMSI: 356715971.

Date/timePositionNaut miles runAvg speedWind from/ knotsBaromVisibWave heightAir tempDewpointWater temp
2016-Jul-28 09:22N 42°29' E 018°06'1517.6
2016-Jul-28 08:32N 42°15' E 018°12'1817.6
2016-Jul-28 07:31N 41°58' E 018°20'40714.5
2016-Jul-27 03:28N 36°46' E 023°58'5117.3
2016-Jul-27 00:33N 37°15' E 024°50'1817.9
2016-Jul-26 23:34N 37°26' E 025°08'9 9.2
2016-Jul-26 22:32N 37°28' E 025°19'0 0.0
2016-Jul-26 21:32N 37°28' E 025°19'0 0.0
2016-Jul-26 20:26N 37°28' E 025°19'0 0.0
2016-Jul-26 19:32N 37°28' E 025°19'0 0.0
2016-Jul-26 18:32N 37°28' E 025°19'0 0.0
2016-Jul-26 17:29N 37°28' E 025°19'3 2.8
2016-Jul-26 16:33N 37°28' E 025°16'1414.1
2016-Jul-26 15:33N 37°13' E 025°16'  
2016-Jul-24 00:22N 43°50' E 014°45'3618.8
2016-Jul-23 22:25N 44°07' E 014°01'1618.6
2016-Jul-23 21:32N 44°21' E 013°48'1818.2
2016-Jul-23 20:33N 44°36' E 013°34'1818.1
2016-Jul-23 19:33N 44°51' E 013°20'2118.1
2016-Jul-23 18:23N 45°05' E 012°58'1416.7
2016-Jul-23 17:33N 45°14' E 012°43'1616.2
2016-Jul-23 16:33N 45°25' E 012°26'6 5.1
2016-Jul-23 15:27N 45°26' E 012°18'0 0.0
2016-Jul-23 14:33N 45°26' E 012°18'0 0.0
2016-Jul-23 13:33N 45°26' E 012°18'0 0.0
2016-Jul-23 12:33N 45°26' E 012°18'0 0.0
2016-Jul-23 11:33N 45°26' E 012°18'0 0.0
2016-Jul-23 10:33N 45°26' E 012°18'0 0.0
2016-Jul-23 09:33N 45°26' E 012°18'0 0.0
2016-Jul-23 08:30N 45°26' E 012°18'0 0.0
2016-Jul-23 07:33N 45°26' E 012°18'0 0.0
2016-Jul-23 06:30N 45°26' E 012°18'5 2.4
2016-Jul-23 04:34N 45°26' E 012°25'1211.7
2016-Jul-23 03:33N 45°20' E 012°39'1211.8
2016-Jul-23 02:33N 45°12' E 012°51'1212.2
2016-Jul-23 01:33N 44°60' E 012°56'1211.9
2016-Jul-23 00:33N 44°49' E 013°01'1110.9
2016-Jul-22 23:33N 44°38' E 013°05'1010.4
2016-Jul-22 22:33N 44°28' E 013°10'1110.7
2016-Jul-22 21:33N 44°18' E 013°15'1110.6
2016-Jul-22 20:33N 44°12' E 013°26'1212.0
2016-Jul-22 19:33N 44°04' E 013°40'1211.6
2016-Jul-22 18:33N 43°56' E 013°51'1212.0
2016-Jul-22 17:33N 43°45' E 013°44'1211.7
2016-Jul-22 16:33N 43°38' E 013°30'1 1.3
2016-Jul-22 15:31N 43°37' E 013°30'0 0.0
2016-Jul-22 14:32N 43°37' E 013°30'0 0.0
2016-Jul-22 13:32N 43°37' E 013°30'0 0.0
2016-Jul-22 11:32N 43°37' E 013°30'0 0.0
2016-Jul-22 09:32N 43°37' E 013°30'0 0.0
2016-Jul-22 08:29N 43°37' E 013°30'5 2.3
2016-Jul-22 06:34N 43°41' E 013°34'2913.7
2016-Jul-22 04:26N 43°32' E 014°12'1416.3
2016-Jul-22 03:34N 43°25' E 014°30'1616.2
2016-Jul-22 02:34N 43°18' E 014°49'3316.3
2016-Jul-22 00:33N 43°03' E 015°29'1616.3
2016-Jul-21 23:33N 42°56' E 015°49'101 5.8
2016-Jul-21 06:19N 42°35' E 018°03'1114.5
2016-Jul-21 05:33N 42°25' E 018°08'1615.8
2016-Jul-21 04:33N 42°10' E 018°15'1616.0
2016-Jul-21 03:33N 41°54' E 018°22'40912.7
2016-Jul-19 19:16N 37°14' E 024°48'912.8
2016-Jul-19 18:33N 37°19' E 024°57'1413.6
2016-Jul-19 17:33N 37°27' E 025°11'5 4.6
2016-Jul-19 16:33N 37°28' E 025°17'1111.1
2016-Jul-19 15:33N 37°17' E 025°14'1616.0
2016-Jul-19 14:33N 37°01' E 025°17'  
Track history (hours):
 
Tides and Currents Weather Stations Pressure Air Temp Water Temp Dewpoint Dewpoint Depression Visibility Wind Speed Wind Dir Waves Ship Positions

MSC Sinfonia

Last reported at 2016-Jul-28 09:22 UTC. Time now 2016-Jul-29 10:17 UTC.
Position N 42°29' E 018°06'.

Length 251 m; draft 6.8 m.

Type: Passenger vessel. MMSI: 356715971.

Date/timePositionNaut miles runAvg speedWind from/ knotsBaromVisibWave heightAir tempDewpointWater temp
2016-Jul-28 09:22N 42°29' E 018°06'1517.6
2016-Jul-28 08:32N 42°15' E 018°12'1817.6
2016-Jul-28 07:31N 41°58' E 018°20'40714.5
2016-Jul-27 03:28N 36°46' E 023°58'5117.3
2016-Jul-27 00:33N 37°15' E 024°50'1817.9
2016-Jul-26 23:34N 37°26' E 025°08'9 9.2
2016-Jul-26 22:32N 37°28' E 025°19'0 0.0
2016-Jul-26 21:32N 37°28' E 025°19'0 0.0
2016-Jul-26 20:26N 37°28' E 025°19'0 0.0
2016-Jul-26 19:32N 37°28' E 025°19'0 0.0
2016-Jul-26 18:32N 37°28' E 025°19'0 0.0
2016-Jul-26 17:29N 37°28' E 025°19'3 2.8
2016-Jul-26 16:33N 37°28' E 025°16'1414.1
2016-Jul-26 15:33N 37°13' E 025°16'  
2016-Jul-24 00:22N 43°50' E 014°45'3618.8
2016-Jul-23 22:25N 44°07' E 014°01'1618.6
2016-Jul-23 21:32N 44°21' E 013°48'1818.2
2016-Jul-23 20:33N 44°36' E 013°34'1818.1
2016-Jul-23 19:33N 44°51' E 013°20'2118.1
2016-Jul-23 18:23N 45°05' E 012°58'1416.7
2016-Jul-23 17:33N 45°14' E 012°43'1616.2
2016-Jul-23 16:33N 45°25' E 012°26'6 5.1
2016-Jul-23 15:27N 45°26' E 012°18'0 0.0
2016-Jul-23 14:33N 45°26' E 012°18'0 0.0
2016-Jul-23 13:33N 45°26' E 012°18'0 0.0
2016-Jul-23 12:33N 45°26' E 012°18'0 0.0
2016-Jul-23 11:33N 45°26' E 012°18'0 0.0
2016-Jul-23 10:33N 45°26' E 012°18'0 0.0
2016-Jul-23 09:33N 45°26' E 012°18'0 0.0
2016-Jul-23 08:30N 45°26' E 012°18'0 0.0
2016-Jul-23 07:33N 45°26' E 012°18'0 0.0
2016-Jul-23 06:30N 45°26' E 012°18'5 2.4
2016-Jul-23 04:34N 45°26' E 012°25'1211.7
2016-Jul-23 03:33N 45°20' E 012°39'1211.8
2016-Jul-23 02:33N 45°12' E 012°51'1212.2
2016-Jul-23 01:33N 44°60' E 012°56'1211.9
2016-Jul-23 00:33N 44°49' E 013°01'1110.9
2016-Jul-22 23:33N 44°38' E 013°05'1010.4
2016-Jul-22 22:33N 44°28' E 013°10'1110.7
2016-Jul-22 21:33N 44°18' E 013°15'1110.6
2016-Jul-22 20:33N 44°12' E 013°26'1212.0
2016-Jul-22 19:33N 44°04' E 013°40'1211.6
2016-Jul-22 18:33N 43°56' E 013°51'1212.0
2016-Jul-22 17:33N 43°45' E 013°44'1211.7
2016-Jul-22 16:33N 43°38' E 013°30'1 1.3
2016-Jul-22 15:31N 43°37' E 013°30'0 0.0
2016-Jul-22 14:32N 43°37' E 013°30'0 0.0
2016-Jul-22 13:32N 43°37' E 013°30'0 0.0
2016-Jul-22 11:32N 43°37' E 013°30'0 0.0
2016-Jul-22 09:32N 43°37' E 013°30'0 0.0
2016-Jul-22 08:29N 43°37' E 013°30'5 2.3
2016-Jul-22 06:34N 43°41' E 013°34'2913.7
2016-Jul-22 04:26N 43°32' E 014°12'1416.3
2016-Jul-22 03:34N 43°25' E 014°30'1616.2
2016-Jul-22 02:34N 43°18' E 014°49'3316.3
2016-Jul-22 00:33N 43°03' E 015°29'1616.3
2016-Jul-21 23:33N 42°56' E 015°49'101 5.8
2016-Jul-21 06:19N 42°35' E 018°03'1114.5
2016-Jul-21 05:33N 42°25' E 018°08'1615.8
2016-Jul-21 04:33N 42°10' E 018°15'1616.0
2016-Jul-21 03:33N 41°54' E 018°22'40912.7
2016-Jul-19 19:16N 37°14' E 024°48'912.8
2016-Jul-19 18:33N 37°19' E 024°57'1413.6
2016-Jul-19 17:33N 37°27' E 025°11'5 4.6
2016-Jul-19 16:33N 37°28' E 025°17'1111.1
2016-Jul-19 15:33N 37°17' E 025°14'1616.0
2016-Jul-19 14:33N 37°01' E 025°17'  

Dump ship's entire track history